Time;durP1;ratioP1;P1;durP2;ratioP2;P2;SDS_P1;SDS_P2;PMS_P1;PMS_P2;Temp;Humidity;BMP_temperature;BMP_pressure;BME280_temperature;BME280_humidity;BME280_pressure;Samples;Min_cycle;Max_cycle;Signal;HPM_P1;HPM_P2
2023/09/03 00:01:42;;;;;;;11.48;5.82;;;14.10;99.90;;;;;;5002768;28;20080;-75
2023/09/03 00:04:08;;;;;;;9.45;5.35;;;14.10;99.90;;;;;;5004153;28;20045;-74
2023/09/03 00:06:33;;;;;;;9.38;6.30;;;14.10;99.90;;;;;;5003961;28;20038;-74
2023/09/03 00:08:59;;;;;;;9.65;6.95;;;14.10;99.90;;;;;;5003157;28;20067;-74
2023/09/03 00:11:25;;;;;;;12.15;7.28;;;14.10;99.90;;;;;;5002385;28;20053;-74
2023/09/03 00:13:50;;;;;;;10.45;6.60;;;14.10;99.90;;;;;;5003146;28;20755;-74
2023/09/03 00:16:16;;;;;;;10.20;6.20;;;14.10;99.90;;;;;;5002934;28;20481;-74
2023/09/03 00:18:42;;;;;;;11.38;6.13;;;14.10;99.90;;;;;;5002436;28;20052;-74
2023/09/03 00:21:07;;;;;;;9.50;5.78;;;14.10;99.90;;;;;;5002437;28;20049;-74
2023/09/03 00:23:33;;;;;;;7.68;4.85;;;14.10;99.90;;;;;;5001433;28;20076;-74
2023/09/03 00:26:00;;;;;;;9.02;5.50;;;14.00;99.90;;;;;;5004093;28;20064;-74
2023/09/03 00:28:26;;;;;;;9.48;5.72;;;14.00;99.90;;;;;;5003714;28;20053;-74
2023/09/03 00:31:07;;;;;;;8.73;5.50;;;14.00;99.90;;;;;;5002473;28;20495;-74
2023/09/03 00:33:34;;;;;;;9.10;5.43;;;14.00;99.90;;;;;;5004146;28;20050;-74
2023/09/03 00:36:03;;;;;;;10.93;5.85;;;14.00;99.90;;;;;;5004024;28;20481;-74
2023/09/03 00:38:28;;;;;;;8.35;4.85;;;14.00;99.90;;;;;;5002697;28;20057;-74
2023/09/03 00:40:54;;;;;;;7.00;5.18;;;13.90;99.90;;;;;;5002416;28;20038;-74
2023/09/03 00:43:20;;;;;;;9.80;5.13;;;13.90;99.90;;;;;;5002496;28;20404;-74
2023/09/03 00:45:47;;;;;;;8.82;4.82;;;13.90;99.90;;;;;;5002411;28;20546;-74
2023/09/03 00:48:16;;;;;;;8.18;4.88;;;13.90;99.90;;;;;;5003349;28;20755;-74
2023/09/03 00:50:42;;;;;;;9.63;5.80;;;13.90;99.90;;;;;;5003529;28;20034;-74
2023/09/03 00:53:09;;;;;;;12.35;6.28;;;13.90;99.90;;;;;;5002951;28;20753;-74
2023/09/03 00:55:37;;;;;;;8.50;5.30;;;13.90;99.90;;;;;;5004266;28;20038;-74
2023/09/03 00:58:03;;;;;;;7.13;4.60;;;13.90;99.90;;;;;;5002339;28;20054;-74
2023/09/03 01:00:29;;;;;;;8.75;5.55;;;14.00;99.90;;;;;;5003154;28;20141;-74
2023/09/03 01:02:56;;;;;;;7.93;4.53;;;13.90;99.90;;;;;;5067890;23;20908;-74
2023/09/03 01:05:21;;;;;;;9.18;5.03;;;13.90;99.90;;;;;;4989030;28;20165;-74
2023/09/03 01:07:49;;;;;;;9.07;5.45;;;13.90;99.90;;;;;;5000429;28;20496;-74
2023/09/03 01:10:15;;;;;;;8.23;5.05;;;13.90;99.90;;;;;;5003297;28;20069;-74
2023/09/03 01:12:44;;;;;;;9.82;6.00;;;13.90;99.90;;;;;;4986241;28;20049;-74
2023/09/03 01:15:14;;;;;;;9.25;5.50;;;13.90;99.90;;;;;;5003153;28;20488;-74
2023/09/03 01:18:03;;;;;;;9.05;5.18;;;14.00;99.90;;;;;;5003979;28;20054;-74
2023/09/03 01:20:35;;;;;;;11.02;6.05;;;14.00;99.90;;;;;;5003121;28;20099;-74
2023/09/03 01:23:28;;;;;;;9.90;5.40;;;14.00;99.90;;;;;;4991323;28;20038;-74
2023/09/03 01:25:56;;;;;;;7.47;5.15;;;14.00;99.90;;;;;;4987597;28;20054;-74
2023/09/03 01:28:29;;;;;;;6.85;4.78;;;14.00;99.90;;;;;;4986238;28;20046;-75
2023/09/03 01:30:57;;;;;;;10.57;5.10;;;13.90;99.90;;;;;;4987278;28;20146;-74
2023/09/03 01:33:26;;;;;;;8.38;4.47;;;13.90;99.90;;;;;;4985931;28;20043;-74
2023/09/03 01:35:53;;;;;;;8.15;4.82;;;13.90;99.90;;;;;;4987525;28;20554;-74
2023/09/03 01:38:19;;;;;;;6.47;4.20;;;13.90;99.90;;;;;;4985165;28;20369;-74
2023/09/03 01:40:48;;;;;;;9.75;5.78;;;13.90;99.90;;;;;;4986171;28;20050;-74
2023/09/03 01:43:14;;;;;;;10.00;6.30;;;13.90;99.90;;;;;;4990958;28;20100;-74
2023/09/03 01:46:07;;;;;;;9.05;5.85;;;13.90;99.90;;;;;;5006131;28;20605;-75
2023/09/03 01:48:38;;;;;;;9.57;5.45;;;13.90;99.90;;;;;;4998010;28;20049;-74
2023/09/03 01:51:15;;;;;;;7.55;4.88;;;13.90;99.90;;;;;;5006404;28;20038;-74
2023/09/03 01:54:13;;;;;;;8.70;4.90;;;13.90;99.90;;;;;;5004781;28;20545;-75
2023/09/03 01:56:45;;;;;;;7.47;4.82;;;13.90;99.90;;;;;;4978503;28;20051;-75
2023/09/03 01:59:20;;;;;;;8.57;5.03;;;13.90;99.90;;;;;;5000319;28;20125;-74
2023/09/03 02:01:49;;;;;;;8.23;5.10;;;13.90;99.90;;;;;;5005601;28;20042;-75
2023/09/03 02:04:15;;;;;;;8.25;4.90;;;13.90;99.90;;;;;;5005620;28;20065;-75
2023/09/03 02:06:45;;;;;;;9.57;5.57;;;13.90;99.90;;;;;;5004268;28;20151;-75
2023/09/03 02:09:11;;;;;;;8.90;5.10;;;13.90;99.90;;;;;;5005839;28;20052;-75
2023/09/03 02:11:36;;;;;;;7.75;4.25;;;13.80;99.90;;;;;;5005497;28;20640;-75
2023/09/03 02:14:02;;;;;;;11.00;5.68;;;13.80;99.90;;;;;;5006410;28;20084;-75
2023/09/03 02:16:28;;;;;;;6.95;4.53;;;13.70;99.90;;;;;;5004551;28;20054;-75
2023/09/03 02:18:53;;;;;;;7.47;4.72;;;13.70;99.90;;;;;;5006030;28;20042;-75
2023/09/03 02:21:19;;;;;;;8.65;4.97;;;13.70;99.90;;;;;;5004487;28;20084;-75
2023/09/03 02:23:44;;;;;;;8.13;4.95;;;13.60;99.90;;;;;;5005050;28;20067;-75
2023/09/03 02:26:10;;;;;;;8.50;5.05;;;13.60;99.90;;;;;;5004416;28;20075;-75
2023/09/03 02:28:36;;;;;;;10.43;5.40;;;13.60;99.90;;;;;;5005057;28;20042;-75
2023/09/03 02:31:02;;;;;;;11.82;4.88;;;13.60;99.90;;;;;;5004439;28;20068;-75
2023/09/03 02:33:28;;;;;;;6.97;4.57;;;13.60;99.90;;;;;;5005557;28;20407;-74
2023/09/03 02:35:54;;;;;;;10.50;5.63;;;13.50;99.90;;;;;;5003585;28;20041;-75
2023/09/03 02:38:20;;;;;;;9.75;5.65;;;13.60;99.90;;;;;;5004482;28;20042;-74
2023/09/03 02:40:46;;;;;;;7.47;5.03;;;13.60;99.90;;;;;;5004495;28;20096;-75
2023/09/03 02:43:12;;;;;;;7.95;4.97;;;13.60;99.90;;;;;;5003759;28;20741;-75
2023/09/03 02:45:38;;;;;;;10.55;5.10;;;13.60;99.90;;;;;;5006191;28;20057;-75
2023/09/03 02:48:04;;;;;;;9.10;5.22;;;13.50;99.90;;;;;;5005969;28;20075;-74
2023/09/03 02:50:29;;;;;;;9.07;5.45;;;13.50;99.90;;;;;;5003747;28;20046;-74
2023/09/03 02:52:55;;;;;;;10.25;6.35;;;13.50;99.90;;;;;;5003432;28;20104;-75
2023/09/03 02:55:21;;;;;;;8.13;5.18;;;13.50;99.90;;;;;;5003594;28;20491;-75
2023/09/03 02:57:46;;;;;;;7.50;4.68;;;13.50;99.90;;;;;;5005345;28;20041;-75
2023/09/03 03:00:12;;;;;;;11.63;5.93;;;13.40;99.90;;;;;;5005363;28;20033;-75
2023/09/03 03:02:38;;;;;;;8.27;5.10;;;13.40;99.90;;;;;;5005588;28;20594;-75
2023/09/03 03:05:04;;;;;;;7.90;4.88;;;13.30;99.90;;;;;;5005143;28;20137;-75
2023/09/03 03:07:29;;;;;;;6.65;4.43;;;13.30;99.90;;;;;;4987557;28;20049;-75
2023/09/03 03:09:55;;;;;;;8.93;5.28;;;13.30;99.90;;;;;;4968300;28;20085;-74
2023/09/03 03:12:21;;;;;;;7.57;4.72;;;13.30;99.90;;;;;;4968099;28;20050;-74
2023/09/03 03:14:48;;;;;;;9.05;5.00;;;13.30;99.90;;;;;;4985346;28;20081;-77
2023/09/03 03:17:13;;;;;;;6.93;4.43;;;13.20;99.90;;;;;;4984924;28;20043;-74
2023/09/03 03:19:39;;;;;;;7.93;4.97;;;13.20;99.90;;;;;;4985596;28;20054;-75
2023/09/03 03:22:05;;;;;;;8.57;4.10;;;13.20;99.90;;;;;;4984650;28;20042;-75
2023/09/03 03:24:30;;;;;;;7.93;3.90;;;13.10;99.90;;;;;;4984698;28;20051;-75
2023/09/03 03:26:56;;;;;;;5.47;3.42;;;13.20;99.90;;;;;;4985496;28;20086;-75
2023/09/03 03:29:21;;;;;;;6.20;3.92;;;13.20;99.90;;;;;;4984797;28;20532;-74
2023/09/03 03:31:47;;;;;;;5.07;3.38;;;13.20;99.90;;;;;;4984859;28;20042;-74
2023/09/03 03:34:13;;;;;;;6.05;3.40;;;13.20;99.90;;;;;;4985186;28;20046;-75
2023/09/03 03:36:38;;;;;;;5.20;3.67;;;13.10;99.90;;;;;;4966868;28;20049;-74
2023/09/03 03:39:04;;;;;;;5.85;3.83;;;13.10;99.90;;;;;;4967660;28;20069;-75
2023/09/03 03:41:30;;;;;;;6.65;4.10;;;13.10;99.90;;;;;;4985029;28;20577;-74
2023/09/03 03:43:55;;;;;;;6.00;3.97;;;13.10;99.90;;;;;;4984930;28;20074;-74
2023/09/03 03:46:21;;;;;;;6.47;3.60;;;13.10;99.90;;;;;;4984052;28;20117;-75
2023/09/03 03:48:48;;;;;;;6.07;3.53;;;13.10;99.90;;;;;;4984936;28;20089;-75
2023/09/03 03:51:14;;;;;;;5.97;3.50;;;13.10;99.90;;;;;;4984089;28;20038;-75
2023/09/03 03:53:41;;;;;;;5.38;4.20;;;13.10;99.90;;;;;;4983985;28;20044;-75
2023/09/03 03:56:08;;;;;;;5.30;3.03;;;13.10;99.90;;;;;;4984949;28;20037;-74
2023/09/03 03:58:36;;;;;;;4.72;2.92;;;13.10;99.90;;;;;;4985305;28;20121;-74
2023/09/03 04:01:16;;;;;;;3.03;2.25;;;13.10;99.90;;;;;;4984623;28;20042;-74
2023/09/03 04:03:43;;;;;;;4.38;3.00;;;13.20;99.90;;;;;;4983433;28;20124;-74
2023/09/03 04:06:09;;;;;;;5.28;2.72;;;13.20;99.90;;;;;;5002195;28;20450;-74
2023/09/03 04:08:36;;;;;;;5.18;3.25;;;13.20;99.90;;;;;;5004768;28;20037;-75
2023/09/03 04:11:07;;;;;;;4.97;3.22;;;13.20;99.90;;;;;;5004570;28;20424;-74
2023/09/03 04:13:35;;;;;;;2.92;2.22;;;13.20;99.90;;;;;;5004720;28;20451;-75
2023/09/03 04:16:10;;;;;;;4.68;2.85;;;13.20;99.90;;;;;;5002750;28;20095;-76
2023/09/03 04:18:36;;;;;;;3.30;2.75;;;13.20;99.90;;;;;;5003232;28;20049;-75
2023/09/03 04:21:02;;;;;;;3.75;2.63;;;13.20;99.90;;;;;;5002840;28;20049;-75
2023/09/03 04:23:28;;;;;;;3.47;2.55;;;13.20;99.90;;;;;;5003956;28;20089;-75
2023/09/03 04:25:56;;;;;;;3.00;2.42;;;13.20;99.90;;;;;;5002885;28;20073;-75
2023/09/03 04:28:23;;;;;;;4.45;3.00;;;13.20;99.90;;;;;;5003867;28;20052;-73
2023/09/03 04:30:56;;;;;;;4.18;2.70;;;13.20;99.90;;;;;;5002503;28;20042;-74
2023/09/03 04:33:22;;;;;;;3.47;2.55;;;13.20;99.90;;;;;;4985573;28;20084;-75
2023/09/03 04:35:53;;;;;;;3.10;2.60;;;13.20;99.90;;;;;;5002547;28;20034;-74
2023/09/03 04:38:19;;;;;;;4.07;2.90;;;13.20;99.90;;;;;;5001827;28;20049;-75
2023/09/03 04:40:44;;;;;;;4.30;2.90;;;13.20;99.90;;;;;;5003551;28;20580;-75
2023/09/03 04:43:10;;;;;;;2.97;2.67;;;13.20;99.90;;;;;;5002214;28;20053;-75
2023/09/03 04:45:36;;;;;;;4.00;3.42;;;13.10;99.90;;;;;;5003883;28;20037;-75
2023/09/03 04:48:02;;;;;;;4.35;2.28;;;13.10;99.90;;;;;;5003534;28;20594;-75
2023/09/03 04:50:28;;;;;;;3.58;2.90;;;13.20;99.90;;;;;;5003796;28;20482;-74
2023/09/03 04:52:56;;;;;;;3.95;2.63;;;13.20;99.90;;;;;;5000910;28;20085;-74
2023/09/03 04:55:23;;;;;;;3.97;2.47;;;13.20;99.90;;;;;;5002290;28;20400;-74
2023/09/03 04:57:48;;;;;;;3.88;2.25;;;13.20;99.90;;;;;;5002426;28;20045;-74
2023/09/03 05:00:14;;;;;;;3.30;2.50;;;13.20;99.90;;;;;;5007406;28;20076;-74
2023/09/03 05:02:40;;;;;;;3.33;2.35;;;13.30;99.90;;;;;;5007334;28;20455;-75
2023/09/03 05:05:06;;;;;;;3.17;2.40;;;13.30;99.90;;;;;;4990044;28;20133;-74
2023/09/03 05:07:32;;;;;;;4.78;2.70;;;13.30;99.90;;;;;;4971729;28;20069;-74
2023/09/03 05:09:57;;;;;;;3.70;2.22;;;13.20;99.90;;;;;;4987875;28;20398;-75
2023/09/03 05:12:23;;;;;;;3.10;2.35;;;13.30;99.90;;;;;;4970311;28;20050;-74
2023/09/03 05:14:49;;;;;;;3.78;2.40;;;13.30;99.90;;;;;;4987351;28;20039;-74
2023/09/03 05:17:15;;;;;;;4.30;2.10;;;13.30;99.90;;;;;;4970303;28;20101;-74
2023/09/03 05:19:41;;;;;;;3.05;2.40;;;13.30;99.90;;;;;;4987669;28;20038;-74
2023/09/03 05:22:07;;;;;;;3.22;2.63;;;13.30;99.90;;;;;;4986696;28;20081;-74
2023/09/03 05:24:32;;;;;;;3.67;2.35;;;13.30;99.90;;;;;;4969908;28;20096;-75
2023/09/03 05:26:58;;;;;;;3.83;2.60;;;13.40;99.90;;;;;;4987337;28;20047;-74
2023/09/03 05:29:24;;;;;;;4.57;2.28;;;13.30;99.90;;;;;;4969353;28;20054;-74
2023/09/03 05:31:49;;;;;;;3.83;2.80;;;13.40;99.90;;;;;;4987660;28;20042;-75
2023/09/03 05:34:15;;;;;;;5.43;2.78;;;13.40;99.90;;;;;;4987565;28;20497;-75
2023/09/03 05:36:40;;;;;;;6.53;3.45;;;13.40;99.90;;;;;;4968818;28;20038;-75
2023/09/03 05:39:06;;;;;;;5.53;3.50;;;13.40;99.90;;;;;;4954120;28;20077;-75
2023/09/03 05:41:32;;;;;;;5.72;3.03;;;13.50;99.90;;;;;;4970104;28;20404;-75
2023/09/03 05:43:57;;;;;;;4.88;3.53;;;13.50;99.90;;;;;;4986657;28;20042;-75
2023/09/03 05:46:24;;;;;;;5.05;3.13;;;13.50;99.90;;;;;;4987088;28;20046;-75
2023/09/03 05:48:52;;;;;;;3.53;3.20;;;13.50;99.90;;;;;;4987350;28;20129;-74
2023/09/03 05:51:18;;;;;;;5.13;2.92;;;13.50;99.90;;;;;;4985845;28;20038;-74
2023/09/03 05:53:44;;;;;;;4.20;3.00;;;13.60;99.90;;;;;;4969499;28;20100;-75
2023/09/03 05:56:11;;;;;;;5.22;3.63;;;13.60;99.90;;;;;;4986607;28;20042;-75
2023/09/03 05:58:37;;;;;;;5.70;3.45;;;13.60;99.90;;;;;;4969199;28;20056;-74
2023/09/03 06:01:04;;;;;;;6.22;3.50;;;13.60;99.90;;;;;;4969783;28;20157;-74
2023/09/03 06:03:30;;;;;;;8.73;3.58;;;13.70;99.90;;;;;;4994288;28;20505;-75
2023/09/03 06:05:55;;;;;;;5.60;3.83;;;13.70;99.90;;;;;;5004940;28;20072;-74
2023/09/03 06:08:21;;;;;;;4.65;3.08;;;13.70;99.90;;;;;;5006074;28;20821;-74
2023/09/03 06:10:47;;;;;;;2.63;2.42;;;13.70;99.90;;;;;;5006153;28;20038;-74
2023/09/03 06:13:12;;;;;;;5.60;3.22;;;13.80;99.90;;;;;;5005399;28;20685;-74
2023/09/03 06:15:38;;;;;;;6.05;3.58;;;13.80;99.90;;;;;;5006960;28;20038;-74
2023/09/03 06:18:03;;;;;;;3.83;3.25;;;13.80;99.90;;;;;;5006548;28;20084;-74
2023/09/03 06:20:30;;;;;;;5.35;3.47;;;13.90;99.90;;;;;;5005435;28;20085;-74
2023/09/03 06:22:56;;;;;;;6.05;4.03;;;13.90;99.90;;;;;;5005129;28;20045;-75
2023/09/03 06:25:21;;;;;;;6.07;4.00;;;13.90;99.90;;;;;;5005842;28;20113;-74
2023/09/03 06:27:47;;;;;;;6.00;3.70;;;14.00;99.90;;;;;;5005324;28;20053;-74
2023/09/03 06:30:13;;;;;;;6.75;3.92;;;14.00;99.90;;;;;;5004293;28;20046;-74
2023/09/03 06:32:38;;;;;;;5.72;3.67;;;14.10;99.90;;;;;;5004818;28;20542;-75
2023/09/03 06:35:05;;;;;;;6.75;3.78;;;14.10;99.90;;;;;;5006166;28;20046;-74
2023/09/03 06:37:30;;;;;;;8.18;3.83;;;14.20;99.90;;;;;;5003584;28;20072;-75
2023/09/03 06:39:56;;;;;;;7.38;4.18;;;14.20;99.90;;;;;;5005940;28;20034;-74
2023/09/03 06:42:22;;;;;;;7.60;4.05;;;14.20;99.90;;;;;;5004796;28;20050;-74
2023/09/03 06:44:47;;;;;;;8.43;4.50;;;14.30;99.90;;;;;;5004430;28;20046;-74
2023/09/03 06:47:13;;;;;;;8.48;4.55;;;14.30;99.90;;;;;;4987642;28;20042;-74
2023/09/03 06:49:39;;;;;;;8.48;5.22;;;14.40;99.90;;;;;;4988126;28;20076;-76
2023/09/03 06:52:05;;;;;;;9.20;5.95;;;14.40;99.90;;;;;;5004876;28;20046;-74
2023/09/03 06:54:30;;;;;;;18.45;6.25;;;14.50;99.90;;;;;;5003851;28;20476;-75
2023/09/03 06:56:56;;;;;;;10.20;5.82;;;14.50;99.90;;;;;;5004682;28;20480;-75
2023/09/03 06:59:23;;;;;;;10.10;5.78;;;14.60;99.90;;;;;;5001796;28;20515;-74
2023/09/03 07:01:50;;;;;;;7.75;5.30;;;14.70;99.90;;;;;;5001847;28;20038;-76
2023/09/03 07:04:16;;;;;;;9.05;5.35;;;14.80;99.90;;;;;;4999048;28;20046;-75
2023/09/03 07:06:41;;;;;;;8.00;5.22;;;14.80;99.90;;;;;;5003030;28;20041;-75
2023/09/03 07:09:08;;;;;;;10.02;5.10;;;14.90;99.90;;;;;;5002241;28;20428;-75
2023/09/03 07:11:33;;;;;;;11.10;5.20;;;15.00;99.90;;;;;;5003206;28;20374;-76
2023/09/03 07:13:59;;;;;;;10.82;5.38;;;15.00;99.90;;;;;;5004798;28;20133;-74
2023/09/03 07:16:24;;;;;;;9.85;5.20;;;15.10;99.90;;;;;;5004802;28;20121;-75
2023/09/03 07:18:50;;;;;;;9.35;6.18;;;15.10;99.90;;;;;;5003902;28;20133;-75
2023/09/03 07:21:16;;;;;;;9.73;4.95;;;15.20;99.90;;;;;;5003535;28;20038;-76
2023/09/03 07:23:41;;;;;;;8.52;4.43;;;15.20;99.90;;;;;;5004961;28;20044;-76
2023/09/03 07:26:11;;;;;;;8.23;5.03;;;15.30;99.90;;;;;;5004177;28;20050;-76
2023/09/03 07:28:38;;;;;;;10.88;5.07;;;15.40;99.90;;;;;;5003990;28;20531;-76
2023/09/03 07:31:04;;;;;;;11.32;5.63;;;15.40;99.90;;;;;;5002611;28;20046;-76
2023/09/03 07:33:32;;;;;;;11.68;5.80;;;15.50;99.90;;;;;;5002470;28;20038;-76
2023/09/03 07:35:58;;;;;;;10.52;5.25;;;15.50;99.90;;;;;;5002007;28;20508;-76
2023/09/03 07:38:27;;;;;;;13.25;6.03;;;15.60;99.90;;;;;;5001306;28;20034;-75
2023/09/03 07:40:53;;;;;;;10.68;5.32;;;15.60;99.90;;;;;;5000211;28;20058;-76
2023/09/03 07:43:18;;;;;;;9.90;5.72;;;15.60;99.90;;;;;;4998359;28;20052;-76
2023/09/03 07:45:45;;;;;;;13.73;5.43;;;15.70;99.90;;;;;;4987337;28;20038;-78
2023/09/03 07:48:11;;;;;;;9.35;5.07;;;15.70;99.90;;;;;;5003794;28;20038;-78
2023/09/03 07:50:39;;;;;;;9.57;4.90;;;15.70;99.90;;;;;;5003118;28;20145;-77
2023/09/03 07:53:05;;;;;;;7.30;5.07;;;15.70;99.90;;;;;;5003338;28;20457;-76
2023/09/03 07:55:31;;;;;;;6.95;4.47;;;15.70;99.90;;;;;;5002297;28;20129;-77
2023/09/03 07:57:57;;;;;;;8.90;4.88;;;15.80;99.90;;;;;;5003369;28;20038;-75
2023/09/03 08:00:23;;;;;;;7.05;4.80;;;15.80;99.90;;;;;;5001706;28;20049;-78
2023/09/03 08:02:49;;;;;;;10.98;6.03;;;15.90;99.90;;;;;;5003646;28;20073;-76
2023/09/03 08:05:16;;;;;;;11.02;5.30;;;15.90;99.90;;;;;;5001399;28;20054;-76
2023/09/03 08:07:42;;;;;;;7.38;5.18;;;16.00;99.90;;;;;;5002217;28;20869;-76
2023/09/03 08:10:08;;;;;;;7.15;4.35;;;16.00;99.90;;;;;;5004518;28;20046;-76
2023/09/03 08:12:34;;;;;;;5.90;4.18;;;16.10;99.90;;;;;;5003014;28;20049;-77
2023/09/03 08:14:59;;;;;;;6.35;4.07;;;16.10;99.90;;;;;;5002603;28;20104;-77
2023/09/03 08:17:26;;;;;;;7.68;4.63;;;16.10;99.90;;;;;;5004234;28;20034;-77
2023/09/03 08:19:52;;;;;;;6.88;4.60;;;16.20;99.90;;;;;;5002263;28;20038;-77
2023/09/03 08:22:18;;;;;;;9.50;5.38;;;16.20;99.90;;;;;;5000032;28;20581;-76
2023/09/03 08:24:43;;;;;;;7.10;3.97;;;16.30;99.90;;;;;;5002014;28;20044;-76
2023/09/03 08:27:09;;;;;;;7.78;3.75;;;16.30;99.90;;;;;;5002071;28;20042;-77
2023/09/03 08:29:34;;;;;;;6.57;4.28;;;16.30;99.90;;;;;;5000934;28;20397;-77
2023/09/03 08:32:00;;;;;;;6.88;4.53;;;16.40;99.90;;;;;;5000567;28;20061;-76
2023/09/03 08:34:26;;;;;;;8.48;4.57;;;16.40;99.90;;;;;;4997276;28;20073;-77
2023/09/03 08:36:51;;;;;;;6.28;3.42;;;16.50;99.90;;;;;;5000640;28;20034;-76
2023/09/03 08:39:17;;;;;;;5.85;3.90;;;16.60;99.90;;;;;;5001978;28;20095;-76
2023/09/03 08:41:43;;;;;;;5.25;3.97;;;16.70;99.90;;;;;;5003975;28;20428;-76
2023/09/03 08:44:25;;;;;;;7.80;3.70;;;16.70;99.90;;;;;;5002068;28;20400;-76
2023/09/03 08:46:54;;;;;;;5.60;4.05;;;16.80;99.90;;;;;;5001097;28;20073;-76
2023/09/03 08:49:19;;;;;;;7.05;3.30;;;16.80;99.90;;;;;;5001230;28;20077;-76
2023/09/03 08:51:45;;;;;;;5.18;3.10;;;16.90;99.90;;;;;;4998346;28;20042;-76
2023/09/03 08:54:12;;;;;;;5.50;3.42;;;17.00;99.90;;;;;;5009398;28;20125;-76
2023/09/03 08:56:37;;;;;;;6.00;3.30;;;17.00;99.90;;;;;;5004363;28;20045;-76
2023/09/03 08:59:03;;;;;;;5.75;3.20;;;17.10;99.90;;;;;;5003610;28;20311;-76
2023/09/03 09:01:31;;;;;;;4.45;2.92;;;17.10;99.90;;;;;;5003046;28;20522;-76
2023/09/03 09:04:01;;;;;;;6.30;3.38;;;17.20;99.90;;;;;;5001719;28;20599;-76
2023/09/03 09:06:29;;;;;;;3.60;2.75;;;17.20;99.90;;;;;;4995146;28;20100;-76
2023/09/03 09:08:57;;;;;;;6.38;3.60;;;17.20;99.90;;;;;;5000278;28;20107;-77
2023/09/03 09:11:26;;;;;;;7.18;3.53;;;17.10;99.90;;;;;;5002383;28;20046;-76
2023/09/03 09:13:58;;;;;;;4.68;3.17;;;17.20;99.90;;;;;;4992702;28;20405;-75
2023/09/03 09:16:24;;;;;;;3.60;2.50;;;17.20;99.90;;;;;;5001554;28;20052;-75
2023/09/03 09:18:50;;;;;;;3.50;2.60;;;17.30;99.90;;;;;;5000852;28;20042;-76
2023/09/03 09:21:18;;;;;;;3.75;2.40;;;17.40;99.90;;;;;;5002239;28;20093;-77
2023/09/03 09:23:44;;;;;;;4.25;2.67;;;17.40;99.90;;;;;;4999936;28;20116;-76
2023/09/03 09:26:18;;;;;;;4.78;2.78;;;17.40;99.90;;;;;;5003338;28;20125;-76
2023/09/03 09:29:03;;;;;;;5.55;2.72;;;17.50;99.90;;;;;;5001019;28;20060;-76
2023/09/03 09:31:34;;;;;;;2.78;2.35;;;17.60;99.90;;;;;;5006780;28;20498;-75
2023/09/03 09:34:12;;;;;;;6.03;2.97;;;17.60;99.90;;;;;;5006275;28;20064;-75
2023/09/03 09:36:37;;;;;;;3.72;2.70;;;17.60;99.90;;;;;;5002941;28;20034;-76
2023/09/03 09:39:08;;;;;;;4.13;2.15;;;17.60;99.90;;;;;;5002003;28;20254;-76
2023/09/03 09:41:39;;;;;;;3.50;2.00;;;17.60;99.90;;;;;;5001744;28;20531;-76
2023/09/03 09:44:10;;;;;;;2.90;2.28;;;17.60;99.90;;;;;;5001005;28;20049;-76
2023/09/03 09:46:36;;;;;;;4.93;2.42;;;17.60;99.90;;;;;;5001755;28;20484;-76
2023/09/03 09:49:02;;;;;;;2.35;1.77;;;17.60;99.90;;;;;;5004392;28;20070;-76
2023/09/03 09:51:30;;;;;;;1.95;1.52;;;17.60;99.90;;;;;;5003300;28;20854;-76
2023/09/03 09:54:00;;;;;;;3.63;2.10;;;17.60;99.90;;;;;;5003526;28;20053;-75
2023/09/03 09:56:34;;;;;;;4.00;2.05;;;17.60;99.90;;;;;;5003266;28;20038;-76
2023/09/03 09:59:00;;;;;;;2.97;1.98;;;17.60;99.90;;;;;;5003956;28;20038;-75
2023/09/03 10:01:40;;;;;;;3.47;2.63;;;17.70;99.90;;;;;;5003828;28;20041;-76
2023/09/03 10:04:06;;;;;;;3.55;2.40;;;17.80;99.90;;;;;;5003391;28;20050;-76
2023/09/03 10:06:32;;;;;;;3.70;1.77;;;17.90;99.90;;;;;;4997247;28;20477;-76
2023/09/03 10:08:58;;;;;;;2.92;2.15;;;17.90;99.90;;;;;;5001210;28;20277;-75
2023/09/03 10:11:24;;;;;;;3.28;1.80;;;18.00;99.90;;;;;;5002350;28;20436;-76
2023/09/03 10:13:50;;;;;;;2.95;1.83;;;18.00;99.90;;;;;;5000082;28;20061;-75
2023/09/03 10:16:22;;;;;;;2.08;1.70;;;18.10;99.90;;;;;;5000787;28;20038;-75
2023/09/03 10:18:48;;;;;;;;;;;18.10;99.90;;;;;;5000937;28;20097;-76
2023/09/03 10:21:23;;;;;;;2.00;1.27;;;18.20;99.90;;;;;;5001174;28;20004;-75
2023/09/03 10:23:50;;;;;;;3.42;2.25;;;18.20;99.90;;;;;;5022900;28;20426;-77
2023/09/03 10:26:25;;;;;;;2.05;1.30;;;18.20;99.90;;;;;;4988405;28;20139;-77
2023/09/03 10:28:56;;;;;;;1.20;1.10;;;18.20;99.90;;;;;;5003264;28;20045;-77
2023/09/03 10:31:24;;;;;;;2.63;1.25;;;18.20;99.90;;;;;;4988407;28;20038;-76
2023/09/03 10:33:50;;;;;;;2.58;1.35;;;18.20;99.90;;;;;;4992625;28;20044;-76
2023/09/03 10:36:17;;;;;;;2.05;1.27;;;18.20;99.90;;;;;;4984950;28;20129;-77
2023/09/03 10:38:47;;;;;;;1.17;1.08;;;18.30;99.90;;;;;;4986566;28;20035;-76
2023/09/03 10:41:21;;;;;;;1.70;1.30;;;18.30;99.90;;;;;;4999055;28;20052;-77
2023/09/03 10:43:49;;;;;;;2.30;1.20;;;18.40;99.90;;;;;;4994116;28;20093;-77
2023/09/03 10:46:15;;;;;;;3.80;1.50;;;18.40;99.90;;;;;;4997099;28;20046;-77
2023/09/03 10:48:51;;;;;;;1.20;1.05;;;18.50;99.90;;;;;;5001532;28;20057;-77
2023/09/03 10:51:32;;;;;;;1.75;1.63;;;18.50;99.90;;;;;;4995433;28;20108;-76
2023/09/03 10:54:17;;;;;;;1.17;1.08;;;18.50;99.90;;;;;;4993873;28;20125;-77
2023/09/03 10:57:05;;;;;;;1.83;1.27;;;18.60;99.90;;;;;;4984046;28;20112;-76
2023/09/03 11:00:00;;;;;;;1.05;0.95;;;18.60;99.90;;;;;;4998786;28;20085;-76
2023/09/03 11:02:27;;;;;;;1.33;1.23;;;18.60;99.90;;;;;;4997489;28;20054;-76
2023/09/03 11:05:19;;;;;;;1.70;1.25;;;18.70;99.90;;;;;;4987804;28;20054;-76
2023/09/03 11:07:46;;;;;;;2.08;1.55;;;18.80;99.90;;;;;;4998761;28;20055;-78
2023/09/03 11:10:34;;;;;;;2.60;1.52;;;18.80;99.90;;;;;;4993838;28;20064;-77
2023/09/03 11:13:00;;;;;;;1.10;0.95;;;18.90;99.90;;;;;;4989811;28;20276;-78
2023/09/03 11:15:26;;;;;;;1.52;1.00;;;18.90;99.90;;;;;;5000475;28;20038;-77
2023/09/03 11:17:56;;;;;;;2.30;1.15;;;18.90;99.90;;;;;;5001889;28;20727;-75
2023/09/03 11:20:35;;;;;;;1.70;1.25;;;18.90;99.90;;;;;;5000292;28;20045;-77
2023/09/03 11:23:02;;;;;;;3.30;1.30;;;19.00;99.90;;;;;;5000789;28;20034;-77
2023/09/03 11:25:35;;;;;;;3.35;1.30;;;19.00;99.90;;;;;;5003437;28;20045;-78
2023/09/03 11:28:02;;;;;;;1.30;1.20;;;19.00;99.90;;;;;;5003418;28;20053;-78
2023/09/03 11:30:29;;;;;;;1.48;1.30;;;19.00;99.90;;;;;;4996595;28;20120;-78
2023/09/03 11:32:55;;;;;;;1.65;1.45;;;19.10;99.90;;;;;;5001702;28;20061;-78
2023/09/03 11:35:21;;;;;;;1.67;1.40;;;19.10;99.90;;;;;;5001349;28;20496;-77
2023/09/03 11:37:48;;;;;;;0.95;0.95;;;19.10;99.90;;;;;;5006098;28;20037;-76
2023/09/03 11:40:15;;;;;;;1.25;1.15;;;19.10;99.90;;;;;;4999827;28;20042;-79
2023/09/03 11:42:42;;;;;;;4.72;1.30;;;19.10;99.90;;;;;;4998619;28;20050;-75
2023/09/03 11:45:09;;;;;;;1.50;1.40;;;19.10;99.90;;;;;;5000434;28;20042;-76
2023/09/03 11:47:46;;;;;;;1.20;0.90;;;19.10;99.90;;;;;;4998246;28;20042;-78
2023/09/03 11:50:13;;;;;;;1.40;1.20;;;19.10;99.90;;;;;;4995727;28;20480;-77
2023/09/03 11:52:40;;;;;;;2.17;1.40;;;19.10;99.90;;;;;;4988503;28;20046;-77
2023/09/03 11:55:06;;;;;;;2.55;1.10;;;19.10;99.90;;;;;;5003790;28;20037;-76
2023/09/03 11:57:36;;;;;;;1.08;1.00;;;19.10;99.90;;;;;;4996553;28;20388;-77
2023/09/03 12:00:03;;;;;;;1.85;1.15;;;19.20;99.90;;;;;;5002868;28;20038;-76
2023/09/03 12:02:30;;;;;;;1.00;0.93;;;19.20;99.90;;;;;;4996252;28;20057;-76
2023/09/03 12:04:56;;;;;;;2.88;1.02;;;19.20;99.90;;;;;;4993860;28;20670;-77
2023/09/03 12:07:21;;;;;;;3.50;1.00;;;19.20;99.90;;;;;;4996431;28;20499;-75
2023/09/03 12:09:50;;;;;;;2.05;0.90;;;19.20;99.90;;;;;;5000651;28;20038;-78
2023/09/03 12:12:17;;;;;;;1.75;0.90;;;19.30;99.90;;;;;;5001527;28;20678;-76
2023/09/03 12:14:43;;;;;;;2.28;0.90;;;19.30;99.90;;;;;;4985806;28;20042;-77
2023/09/03 12:17:09;;;;;;;1.13;1.00;;;19.30;99.90;;;;;;5000393;28;20447;-78
2023/09/03 12:19:41;;;;;;;1.73;0.70;;;19.30;99.90;;;;;;5000433;28;20120;-78
2023/09/03 12:22:08;;;;;;;2.25;1.02;;;19.30;99.90;;;;;;5000542;28;20061;-77
2023/09/03 12:24:33;;;;;;;0.98;0.88;;;19.40;99.90;;;;;;5010226;28;20053;-76
2023/09/03 12:27:04;;;;;;;1.90;1.00;;;19.40;99.90;;;;;;4981216;28;20046;-75
2023/09/03 12:29:35;;;;;;;2.72;1.20;;;19.50;99.90;;;;;;4989710;28;20137;-76
2023/09/03 12:32:02;;;;;;;1.30;0.93;;;19.50;99.90;;;;;;5001278;28;20557;-76
2023/09/03 12:34:39;;;;;;;3.45;2.03;;;19.60;99.90;;;;;;5000280;28;20615;-76
2023/09/03 12:37:05;;;;;;;1.92;1.10;;;19.60;99.90;;;;;;4971453;28;20071;-76
2023/09/03 12:39:40;;;;;;;2.13;1.40;;;19.60;99.90;;;;;;4993164;28;20093;-75
2023/09/03 12:42:08;;;;;;;1.02;0.93;;;19.70;99.90;;;;;;4983092;28;20044;-75
2023/09/03 12:44:34;;;;;;;1.30;1.10;;;19.80;99.90;;;;;;4998788;28;20535;-77
2023/09/03 12:47:00;;;;;;;9.32;1.75;;;19.80;99.90;;;;;;4984659;28;20073;-84
2023/09/03 12:49:26;;;;;;;0.85;0.85;;;19.80;99.90;;;;;;4984703;28;20088;-88